Time;durP1;ratioP1;P1;durP2;ratioP2;P2;SDS_P1;SDS_P2;PMS_P1;PMS_P2;Temp;Humidity;BMP_temperature;BMP_pressure;BME280_temperature;BME280_humidity;BME280_pressure;Samples;Min_cycle;Max_cycle;Signal;HPM_P1;HPM_P2
2022/11/16 00:01:19;;;;;;;9.40;8.50;;;;;;;9.65;100.00;95478.97;5061069;28;20264;-57
2022/11/16 00:03:46;;;;;;;9.47;8.40;;;;;;;9.63;100.00;95477.50;5056434;28;20226;-57
2022/11/16 00:06:14;;;;;;;9.20;8.30;;;;;;;9.63;100.00;95475.69;5056508;28;20241;-58
2022/11/16 00:08:42;;;;;;;9.63;8.63;;;;;;;9.61;100.00;95477.66;5056409;28;20265;-57
2022/11/16 00:11:15;;;;;;;9.37;8.57;;;;;;;9.65;100.00;95478.16;5056230;28;20272;-58
2022/11/16 00:13:43;;;;;;;9.90;8.90;;;;;;;9.61;100.00;95480.28;5058840;28;20195;-57
2022/11/16 00:16:15;;;;;;;11.47;8.80;;;;;;;9.55;100.00;95486.25;5056189;28;20234;-58
2022/11/16 00:18:42;;;;;;;8.70;8.00;;;;;;;9.55;100.00;95478.31;5055478;28;20253;-58
2022/11/16 00:21:11;;;;;;;9.13;8.17;;;;;;;9.55;100.00;95488.88;5057516;28;20191;-56
2022/11/16 00:23:38;;;;;;;9.57;8.70;;;;;;;9.61;100.00;95497.94;5055625;28;20288;-57
2022/11/16 00:26:05;;;;;;;9.83;8.83;;;;;;;9.61;100.00;95484.75;5056199;28;20298;-58
2022/11/16 00:28:34;;;;;;;9.40;8.50;;;;;;;9.57;100.00;95481.63;5055401;28;20238;-58
2022/11/16 00:31:02;;;;;;;9.60;8.63;;;;;;;9.59;100.00;95477.00;5055660;28;20249;-57
2022/11/16 00:33:29;;;;;;;10.47;9.47;;;;;;;9.55;100.00;95478.31;5067408;28;20238;-59
2022/11/16 00:35:57;;;;;;;10.77;8.47;;;;;;;9.54;100.00;95471.41;5056892;28;20612;-57
2022/11/16 00:38:24;;;;;;;9.53;8.73;;;;;;;9.54;100.00;95475.84;5055754;28;20647;-58
2022/11/16 00:40:53;;;;;;;9.57;8.60;;;;;;;9.59;100.00;95474.38;5058208;28;20644;-57
2022/11/16 00:43:21;;;;;;;9.30;8.40;;;;;;;9.58;100.00;95479.81;5062829;28;20278;-57
2022/11/16 00:45:52;;;;;;;10.10;9.03;;;;;;;9.57;100.00;95486.06;5063464;28;20206;-57
2022/11/16 00:48:19;;;;;;;9.60;8.70;;;;;;;9.57;100.00;95481.63;5075952;28;20244;-58
2022/11/16 00:50:46;;;;;;;9.87;8.77;;;;;;;9.60;100.00;95483.91;5075539;28;20210;-58
2022/11/16 00:53:14;;;;;;;9.93;9.00;;;;;;;9.61;100.00;95498.78;5075321;28;20263;-58
2022/11/16 00:55:41;;;;;;;11.70;10.50;;;;;;;9.57;100.00;95497.44;5075857;28;20210;-57
2022/11/16 00:58:08;;;;;;;10.27;9.20;;;;;;;9.55;100.00;95507.34;5075167;28;20210;-58
2022/11/16 01:00:35;;;;;;;11.00;9.90;;;;;;;9.56;100.00;95500.28;5075634;28;20214;-57
2022/11/16 01:03:03;;;;;;;10.43;9.33;;;;;;;9.59;100.00;95511.31;5075574;28;20279;-58
2022/11/16 01:05:30;;;;;;;10.57;9.57;;;;;;;9.58;100.00;95507.03;5076420;28;20206;-57
2022/11/16 01:07:57;;;;;;;11.10;9.90;;;;;;;9.54;100.00;95510.16;5077358;28;20267;-57
2022/11/16 01:10:26;;;;;;;11.40;10.30;;;;;;;9.56;100.00;95511.66;5078162;28;20264;-57
2022/11/16 01:12:53;;;;;;;10.97;9.97;;;;;;;9.58;100.00;95508.84;5074608;28;20231;-57
2022/11/16 01:15:22;;;;;;;11.30;10.10;;;;;;;9.59;100.00;95516.59;5059775;28;20299;-57
2022/11/16 01:17:50;;;;;;;11.53;10.43;;;;;;;9.64;100.00;95516.91;5059343;28;20631;-57
2022/11/16 01:20:20;;;;;;;11.50;10.40;;;;;;;9.65;100.00;95520.38;5055215;28;20207;-57
2022/11/16 01:22:47;;;;;;;11.17;10.07;;;;;;;9.67;100.00;95524.50;5056223;28;20659;-57
2022/11/16 01:25:15;;;;;;;12.53;11.23;;;;;;;9.65;100.00;95529.13;5055235;28;20230;-57
2022/11/16 01:27:43;;;;;;;10.73;9.63;;;;;;;9.66;100.00;95527.31;5055194;28;20222;-56
2022/11/16 01:30:12;;;;;;;11.27;10.17;;;;;;;9.67;100.00;95524.50;5055302;28;20207;-58
2022/11/16 01:32:41;;;;;;;11.27;10.17;;;;;;;9.68;100.00;95543.81;5055012;28;20298;-57
2022/11/16 01:35:08;;;;;;;11.33;10.23;;;;;;;9.67;100.00;95545.63;5055753;28;20207;-57
2022/11/16 01:37:37;;;;;;;11.47;10.27;;;;;;;9.67;100.00;95540.34;5055313;28;20211;-57
2022/11/16 01:40:04;;;;;;;11.93;10.27;;;;;;;9.66;100.00;95544.00;5055165;28;20207;-57
2022/11/16 01:42:32;;;;;;;11.43;10.33;;;;;;;9.67;100.00;95544.81;5065202;28;20264;-56
2022/11/16 01:45:05;;;;;;;11.43;10.33;;;;;;;9.65;100.00;95544.97;5056334;28;20230;-58
2022/11/16 01:47:33;;;;;;;10.33;9.33;;;;;;;9.73;100.00;95554.72;5074933;28;20203;-56
2022/11/16 01:50:04;;;;;;;8.90;8.10;;;;;;;9.82;100.00;95559.00;5072544;28;20203;-57
2022/11/16 01:52:34;;;;;;;9.13;8.17;;;;;;;9.85;100.00;95564.78;5064745;28;20237;-56
2022/11/16 01:55:05;;;;;;;8.37;7.57;;;;;;;9.94;100.00;95569.06;5075166;28;20214;-57
2022/11/16 01:57:36;;;;;;;8.97;8.17;;;;;;;9.97;100.00;95568.75;5074807;28;20203;-56
2022/11/16 02:00:07;;;;;;;8.47;7.77;;;;;;;9.97;100.00;95575.84;5074482;28;20245;-57
2022/11/16 02:02:33;;;;;;;9.23;7.50;;;;;;;9.96;100.00;95566.25;5074679;28;20202;-58
2022/11/16 02:05:00;;;;;;;9.23;8.43;;;;;;;9.98;100.00;95565.13;5076897;28;20309;-57
2022/11/16 02:10:49;;;;;;;7.97;7.33;;;;;;;9.95;100.00;95554.84;5036019;28;20243;-56
2022/11/16 02:13:29;;;;;;;7.77;7.07;;;;;;;9.99;100.00;95560.63;5060068;28;20585;-58
2022/11/16 02:16:02;;;;;;;8.77;7.97;;;;;;;10.00;100.00;95551.72;5058962;28;20211;-57
2022/11/16 02:18:34;;;;;;;7.53;6.93;;;;;;;10.02;100.00;95550.56;5075551;28;20191;-57
2022/11/16 02:21:17;;;;;;;7.70;6.90;;;;;;;10.04;100.00;95544.31;5082362;28;20203;-57
2022/11/16 02:24:16;;;;;;;7.83;7.23;;;;;;;10.08;100.00;95535.06;5098531;28;20206;-57
2022/11/16 02:27:22;;;;;;;8.33;7.63;;;;;;;10.07;100.00;95533.41;5087900;28;20183;-58
2022/11/16 02:29:54;;;;;;;8.53;7.73;;;;;;;10.08;100.00;95524.50;5080321;28;20210;-57
2022/11/16 02:32:26;;;;;;;9.23;8.43;;;;;;;10.10;100.00;95535.69;5078623;28;20284;-57
2022/11/16 02:35:00;;;;;;;8.60;7.77;;;;;;;10.10;100.00;95531.25;5067781;28;20261;-57
2022/11/16 02:37:27;;;;;;;8.50;7.80;;;;;;;10.12;100.00;95533.72;5059539;28;20235;-57
2022/11/16 02:39:58;;;;;;;7.60;7.00;;;;;;;10.13;100.00;95524.81;5060210;28;20207;-57
2022/11/16 02:42:29;;;;;;;6.70;6.20;;;;;;;10.15;100.00;95533.44;5069585;28;20200;-58
2022/11/16 02:44:58;;;;;;;6.57;6.03;;;;;;;10.18;100.00;95539.19;5060294;28;20239;-58
2022/11/16 02:47:27;;;;;;;6.43;5.93;;;;;;;10.18;100.00;95544.47;5079918;28;20241;-58
2022/11/16 02:49:56;;;;;;;6.70;6.10;;;;;;;10.19;100.00;95550.59;5079800;28;20267;-57
2022/11/16 02:52:24;;;;;;;6.10;5.60;;;;;;;10.22;100.00;95548.44;5079710;28;20685;-58
2022/11/16 02:54:50;;;;;;;6.23;5.73;;;;;;;10.22;100.00;95550.25;5077732;28;20234;-58
2022/11/16 02:57:40;;;;;;;6.30;5.70;;;;;;;10.22;100.00;95539.69;5057374;28;20237;-57
2022/11/16 03:00:19;;;;;;;5.47;5.07;;;;;;;10.25;100.00;95523.50;5054835;28;20211;-58
2022/11/16 03:02:53;;;;;;;5.03;4.63;;;;;;;10.28;100.00;95520.53;5057372;28;20214;-57
2022/11/16 03:05:30;;;;;;;5.20;4.80;;;;;;;10.29;100.00;95527.47;5065177;28;20214;-58
2022/11/16 03:08:06;;;;;;;4.63;4.30;;;;;;;10.29;100.00;95530.09;5075238;28;20217;-57
2022/11/16 03:13:23;;;;;;;4.80;4.40;;;;;;;10.28;100.00;95516.06;5059820;28;20193;-58
2022/11/16 03:15:55;;;;;;;4.60;4.20;;;;;;;10.30;100.00;95511.44;5057074;28;20268;-58
2022/11/16 03:18:23;;;;;;;4.63;4.33;;;;;;;10.29;100.00;95503.69;5057067;28;20207;-56
2022/11/16 03:20:52;;;;;;;4.80;4.40;;;;;;;10.29;100.00;95503.69;5070565;28;20238;-58
2022/11/16 03:23:28;;;;;;;4.70;4.37;;;;;;;10.29;100.00;95501.88;5068531;28;20253;-58
2022/11/16 03:25:56;;;;;;;4.70;4.30;;;;;;;10.28;100.00;95500.22;5057490;28;20199;-56
2022/11/16 03:28:26;;;;;;;3.90;3.60;;;;;;;10.30;100.00;95507.97;5057083;28;20243;-55
2022/11/16 03:30:59;;;;;;;3.90;3.70;;;;;;;10.31;100.00;95497.22;5057551;28;20218;-58
2022/11/16 03:33:30;;;;;;;3.77;3.47;;;;;;;10.34;100.00;95504.84;5056743;28;20246;-56
2022/11/16 03:36:02;;;;;;;3.67;3.47;;;;;;;10.34;100.00;95504.00;5056914;28;20245;-57
2022/11/16 03:38:30;;;;;;;3.90;3.60;;;;;;;10.32;100.00;95503.34;5056928;28;20324;-57
2022/11/16 03:41:03;;;;;;;4.13;3.80;;;;;;;10.27;100.00;95511.75;5061145;28;20230;-57
2022/11/16 03:43:30;;;;;;;4.57;4.10;;;;;;;10.24;100.00;95509.47;5076910;28;20245;-58
2022/11/16 03:45:58;;;;;;;4.40;3.97;;;;;;;10.23;100.00;95514.94;5065407;28;20229;-57
2022/11/16 03:48:25;;;;;;;4.40;4.00;;;;;;;10.19;100.00;95509.16;5093911;28;20195;-59
2022/11/16 03:50:52;;;;;;;3.87;3.57;;;;;;;10.16;100.00;95511.31;5099145;28;20186;-57
2022/11/16 03:53:19;;;;;;;4.40;4.00;;;;;;;10.13;100.00;95514.25;5098673;28;20224;-57
2022/11/16 03:55:46;;;;;;;4.30;4.00;;;;;;;10.10;100.00;95510.13;5082080;28;20210;-58
2022/11/16 03:58:13;;;;;;;4.17;3.77;;;;;;;10.08;100.00;95524.50;5076374;28;20241;-56
2022/11/16 04:00:40;;;;;;;3.97;3.67;;;;;;;10.11;100.00;95522.34;5076548;28;20202;-56
2022/11/16 04:03:08;;;;;;;4.30;4.00;;;;;;;10.10;100.00;95522.50;5059831;28;20532;-58
2022/11/16 04:24:54;;;;;;;4.27;3.97;;;;;;;10.18;100.00;95498.75;5056968;28;20272;-56
2022/11/16 04:30:11;;;;;;;4.10;3.90;;;;;;;10.16;100.00;95493.66;5056069;28;20595;-57
2022/11/16 04:38:11;;;;;;;4.80;4.20;;;;;;;10.05;100.00;95490.50;5065469;28;20202;-58
2022/11/16 04:40:38;;;;;;;4.53;4.13;;;;;;;10.00;100.00;95493.63;5058947;28;20202;-57
2022/11/16 04:43:06;;;;;;;5.03;4.53;;;;;;;10.01;100.00;95497.94;5065287;28;20203;-57
2022/11/16 04:48:19;;;;;;;4.47;4.07;;;;;;;9.99;100.00;95511.28;5086365;28;20287;-57
2022/11/16 04:50:47;;;;;;;5.13;3.83;;;;;;;9.99;100.00;95513.09;5083382;28;20198;-58
2022/11/16 04:53:16;;;;;;;4.80;4.40;;;;;;;9.93;100.00;95508.50;5064933;28;20229;-57
2022/11/16 04:55:42;;;;;;;4.47;4.07;;;;;;;9.93;100.00;95505.84;5056664;28;20226;-56
2022/11/16 04:58:09;;;;;;;4.97;4.57;;;;;;;9.92;100.00;95502.38;5054914;28;20266;-58
2022/11/16 05:00:36;;;;;;;4.23;3.93;;;;;;;9.89;100.00;95500.09;5054738;28;20240;-58
2022/11/16 05:03:04;;;;;;;5.03;4.27;;;;;;;9.91;100.00;95494.66;5068166;28;20245;-58
2022/11/16 05:05:30;;;;;;;4.80;4.23;;;;;;;9.89;100.00;95492.16;5054825;28;20280;-58
2022/11/16 05:07:59;;;;;;;4.57;4.20;;;;;;;9.91;100.00;95490.19;5054871;28;20242;-57
2022/11/16 05:10:25;;;;;;;4.20;3.90;;;;;;;9.93;100.00;95490.00;5054931;28;20593;-57
2022/11/16 05:12:52;;;;;;;4.80;3.87;;;;;;;9.92;100.00;95491.81;5056675;28;20230;-58
2022/11/16 05:15:19;;;;;;;4.00;3.60;;;;;;;9.90;100.00;95493.81;5056190;28;20238;-57
2022/11/16 05:17:46;;;;;;;4.10;3.80;;;;;;;9.89;100.00;95497.44;5055504;28;20214;-57
2022/11/16 05:23:02;;;;;;;4.20;3.90;;;;;;;9.94;100.00;95495.13;5059878;28;20202;-58
2022/11/16 05:25:29;;;;;;;4.77;4.40;;;;;;;9.87;100.00;95491.50;5066769;28;20247;-58
2022/11/16 05:27:59;;;;;;;4.40;4.00;;;;;;;9.85;100.00;95490.84;5065703;28;20290;-58
2022/11/16 05:30:28;;;;;;;4.33;4.00;;;;;;;9.82;100.00;95488.53;5064724;28;20225;-58
2022/11/16 05:32:55;;;;;;;4.30;4.00;;;;;;;9.81;100.00;95489.50;5065177;28;20226;-57
2022/11/16 05:35:21;;;;;;;4.57;4.17;;;;;;;9.81;100.00;95488.72;5067004;28;20535;-57
2022/11/16 05:37:49;;;;;;;4.13;3.83;;;;;;;9.82;100.00;95495.63;5067526;28;20233;-58
2022/11/16 05:40:22;;;;;;;4.50;4.10;;;;;;;9.77;100.00;95496.16;5068879;28;20596;-58
2022/11/16 05:42:48;;;;;;;4.20;3.90;;;;;;;9.80;100.00;95494.97;5073010;28;20203;-58
2022/11/16 05:45:15;;;;;;;4.37;4.07;;;;;;;9.79;100.00;95491.50;5068520;28;20253;-58
2022/11/16 05:47:42;;;;;;;4.37;4.07;;;;;;;9.83;100.00;95495.47;5067090;28;20257;-59
2022/11/16 05:50:10;;;;;;;4.50;4.10;;;;;;;9.78;100.00;95497.78;5072956;28;20203;-58
2022/11/16 05:52:38;;;;;;;4.40;4.00;;;;;;;9.77;100.00;95498.78;5059151;28;20231;-57
2022/11/16 05:55:06;;;;;;;4.80;4.40;;;;;;;9.77;100.00;95508.53;5072815;28;20234;-57
2022/11/16 05:57:34;;;;;;;4.50;4.10;;;;;;;9.86;100.00;95510.16;5057801;28;20615;-59
2022/11/16 06:00:01;;;;;;;4.10;3.80;;;;;;;9.93;100.00;95509.31;5057749;28;20211;-57
2022/11/16 06:02:27;;;;;;;3.80;3.50;;;;;;;10.00;100.00;95515.59;5058278;28;20646;-57
2022/11/16 06:04:54;;;;;;;4.13;3.83;;;;;;;10.07;100.00;95512.28;5058621;28;20254;-58
2022/11/16 06:07:21;;;;;;;5.83;3.10;;;;;;;10.08;100.00;95516.56;5058510;28;20272;-59
2022/11/16 06:09:48;;;;;;;3.30;3.10;;;;;;;10.10;100.00;95506.66;5057027;28;20211;-57
2022/11/16 06:12:15;;;;;;;3.27;3.00;;;;;;;10.09;100.00;95513.78;5067348;28;20245;-56
2022/11/16 06:14:43;;;;;;;3.43;3.23;;;;;;;10.05;100.00;95511.63;5068702;28;20203;-57
2022/11/16 06:17:13;;;;;;;3.87;3.40;;;;;;;10.03;100.00;95509.13;5056571;28;20203;-58
2022/11/16 06:19:39;;;;;;;3.40;3.13;;;;;;;10.06;100.00;95514.06;5070072;28;20207;-57
2022/11/16 06:22:06;;;;;;;3.47;3.20;;;;;;;10.06;100.00;95515.91;5069722;28;20576;-57
2022/11/16 06:24:33;;;;;;;3.37;3.17;;;;;;;10.02;100.00;95508.31;5064697;28;20268;-58
2022/11/16 06:27:00;;;;;;;3.83;3.43;;;;;;;10.04;100.00;95512.59;5065241;28;20269;-57
2022/11/16 06:29:28;;;;;;;3.43;2.70;;;;;;;10.07;100.00;95515.75;5072588;28;20256;-58
2022/11/16 06:31:56;;;;;;;3.30;3.10;;;;;;;10.07;100.00;95520.19;5072067;28;20260;-57
2022/11/16 06:34:23;;;;;;;3.33;3.13;;;;;;;10.10;100.00;95525.13;5067630;28;20252;-57
2022/11/16 06:36:50;;;;;;;3.10;2.83;;;;;;;10.10;100.00;95522.50;5068737;28;20207;-59
2022/11/16 06:39:17;;;;;;;2.90;2.80;;;;;;;10.11;100.00;95532.91;5084442;28;20207;-58
2022/11/16 06:41:44;;;;;;;3.17;2.97;;;;;;;10.12;100.00;95525.81;5069991;28;20207;-58
2022/11/16 06:44:12;;;;;;;3.20;3.00;;;;;;;10.11;100.00;95532.91;5088308;28;20233;-58
2022/11/16 06:46:39;;;;;;;3.43;3.13;;;;;;;10.14;100.00;95542.31;5077376;28;20198;-58
2022/11/16 06:49:08;;;;;;;6.50;5.90;;;;;;;10.20;100.00;95541.69;5068990;28;20202;-58
2022/11/16 06:51:36;;;;;;;6.37;5.77;;;;;;;10.20;100.00;95545.13;5077961;28;20203;-58
2022/11/16 06:54:03;;;;;;;4.53;4.13;;;;;;;10.23;100.00;95530.78;5069012;28;20198;-57
2022/11/16 06:56:30;;;;;;;3.33;3.13;;;;;;;10.24;100.00;95543.81;5065247;28;20203;-57
2022/11/16 06:58:57;;;;;;;3.47;3.27;;;;;;;10.25;100.00;95539.34;5056939;28;20207;-56
2022/11/16 07:01:23;;;;;;;3.50;3.30;;;;;;;10.24;100.00;95543.81;5056682;28;20313;-57
2022/11/16 07:03:50;;;;;;;3.60;3.37;;;;;;;10.26;100.00;95549.75;5065853;28;20540;-56
2022/11/16 07:06:20;;;;;;;3.90;3.60;;;;;;;10.27;100.00;95548.75;5059815;28;20745;-57
2022/11/16 07:08:47;;;;;;;3.53;3.23;;;;;;;10.32;100.00;95546.44;5056326;28;20247;-58
2022/11/16 07:11:13;;;;;;;3.30;3.10;;;;;;;10.38;100.00;95547.59;5069976;28;20207;-57
2022/11/16 07:13:40;;;;;;;3.13;2.93;;;;;;;10.42;100.00;95546.25;5068225;28;20234;-57
2022/11/16 07:16:08;;;;;;;3.17;2.97;;;;;;;10.44;100.00;95560.13;5077992;28;20198;-57
2022/11/16 07:18:38;;;;;;;3.47;3.17;;;;;;;10.47;100.00;95557.16;5074333;28;20217;-58
2022/11/16 07:21:08;;;;;;;3.30;3.10;;;;;;;10.49;100.00;95561.28;5091099;28;20203;-57
2022/11/16 07:23:36;;;;;;;3.23;3.03;;;;;;;10.53;100.00;95560.94;5068108;28;20230;-57
2022/11/16 07:26:05;;;;;;;3.43;3.13;;;;;;;10.54;100.00;95558.13;5076909;28;20250;-57
2022/11/16 07:28:32;;;;;;;3.33;3.13;;;;;;;10.56;100.00;95563.25;5064304;28;20210;-57
2022/11/16 07:31:01;;;;;;;3.37;3.17;;;;;;;10.53;100.00;95556.47;5071579;28;20530;-56
2022/11/16 07:33:28;;;;;;;4.17;3.40;;;;;;;10.54;100.00;95555.47;5070019;28;20245;-57
2022/11/16 07:35:57;;;;;;;3.07;2.87;;;;;;;10.54;100.00;95560.78;5057272;28;20269;-56
2022/11/16 07:38:26;;;;;;;3.27;3.07;;;;;;;10.56;100.00;95564.06;5057043;28;20245;-57
2022/11/16 07:40:59;;;;;;;3.13;2.93;;;;;;;10.55;100.00;95557.13;5061307;28;20198;-57
2022/11/16 07:43:26;;;;;;;3.87;3.23;;;;;;;10.53;100.00;95564.41;5063592;28;20203;-57
2022/11/16 07:45:53;;;;;;;3.00;2.80;;;;;;;10.51;100.00;95565.56;5073073;28;20269;-57
2022/11/16 07:48:21;;;;;;;2.70;2.60;;;;;;;10.51;100.00;95569.03;5061112;28;20210;-57
2022/11/16 07:50:48;;;;;;;3.33;3.13;;;;;;;10.50;100.00;95564.75;5065549;28;20234;-57
2022/11/16 07:53:15;;;;;;;3.13;2.97;;;;;;;10.55;100.00;95572.19;5063049;28;20264;-56
2022/11/16 07:55:42;;;;;;;3.03;2.73;;;;;;;10.59;100.00;95569.03;5067304;28;20211;-57
2022/11/16 07:58:12;;;;;;;3.43;3.23;;;;;;;10.60;100.00;95570.66;5070347;28;20576;-57
2022/11/16 08:00:39;;;;;;;3.53;3.33;;;;;;;10.65;100.00;95573.63;5066047;28;20247;-57
2022/11/16 08:03:07;;;;;;;3.17;2.97;;;;;;;10.71;100.00;95577.41;5063045;28;20238;-57
2022/11/16 08:05:34;;;;;;;3.40;3.20;;;;;;;10.77;100.00;95584.69;5065719;28;20316;-58
2022/11/16 08:08:00;;;;;;;3.87;3.57;;;;;;;10.87;100.00;95594.06;5070263;28;20640;-58
2022/11/16 08:10:29;;;;;;;3.30;3.10;;;;;;;10.85;100.00;95589.91;5067237;28;20230;-57
2022/11/16 08:12:57;;;;;;;3.90;3.60;;;;;;;10.84;100.00;95589.09;5058490;28;20296;-57
2022/11/16 08:15:26;;;;;;;3.37;3.07;;;;;;;10.86;100.00;95589.75;5056813;28;20245;-57
2022/11/16 08:17:54;;;;;;;3.90;3.60;;;;;;;10.89;100.00;95594.72;5070633;28;20211;-57
2022/11/16 08:20:20;;;;;;;3.70;3.40;;;;;;;10.89;100.00;95578.84;5057217;28;20231;-57
2022/11/16 08:22:48;;;;;;;3.27;3.07;;;;;;;10.92;100.00;95575.84;5071873;28;20235;-57
2022/11/16 08:25:16;;;;;;;3.40;3.20;;;;;;;10.97;100.00;95572.69;5062265;28;20231;-57
2022/11/16 08:27:44;;;;;;;3.40;3.20;;;;;;;10.98;100.00;95577.81;5066396;28;20198;-57
2022/11/16 08:30:12;;;;;;;3.50;3.30;;;;;;;11.07;100.00;95583.06;5067386;28;20195;-57
2022/11/16 08:32:41;;;;;;;3.90;3.60;;;;;;;11.22;100.00;95578.72;5073071;28;20230;-57
2022/11/16 08:35:09;;;;;;;3.70;3.40;;;;;;;11.35;100.00;95581.59;5071193;28;20256;-58
2022/11/16 08:37:35;;;;;;;3.30;3.10;;;;;;;11.49;100.00;95575.56;5063077;28;20214;-57
2022/11/16 08:40:05;;;;;;;3.13;2.93;;;;;;;11.61;100.00;95571.53;5061557;28;20203;-57
2022/11/16 08:42:32;;;;;;;2.90;2.70;;;;;;;11.80;100.00;95583.50;5074753;28;20210;-57
2022/11/16 08:44:58;;;;;;;3.30;3.00;;;;;;;11.96;100.00;95571.00;5061787;28;20277;-57
2022/11/16 08:47:25;;;;;;;3.50;3.20;;;;;;;12.19;100.00;95573.59;5066941;28;20253;-58
2022/11/16 08:49:53;;;;;;;3.70;3.40;;;;;;;12.40;100.00;95575.56;5054690;28;20211;-57
2022/11/16 08:52:20;;;;;;;3.13;2.93;;;;;;;12.76;100.00;95568.56;5062736;28;20285;-57
2022/11/16 08:54:47;;;;;;;3.30;3.10;;;;;;;13.09;100.00;95571.72;5060970;28;20721;-58
2022/11/16 08:57:13;;;;;;;3.13;2.93;;;;;;;13.36;100.00;95571.03;5066429;28;20398;-57
2022/11/16 08:59:40;;;;;;;3.20;2.90;;;;;;;13.52;97.72;95579.78;5068726;28;20237;-56
2022/11/16 09:02:06;;;;;;;4.40;2.83;;;;;;;13.48;99.63;95576.69;5063440;28;20722;-58
2022/11/16 09:04:33;;;;;;;3.53;2.90;;;;;;;13.75;99.34;95578.63;5059753;28;20246;-57
2022/11/16 09:07:03;;;;;;;3.00;2.80;;;;;;;14.00;93.90;95579.06;5063316;28;20234;-57
2022/11/16 09:09:29;;;;;;;3.20;2.93;;;;;;;14.42;96.16;95578.25;5061657;28;20696;-57
2022/11/16 09:11:56;;;;;;;3.80;2.60;;;;;;;14.71;87.66;95577.22;5066494;28;20234;-57
2022/11/16 09:14:22;;;;;;;2.97;2.77;;;;;;;14.63;87.26;95575.53;5072264;28;20241;-58
2022/11/16 09:16:51;;;;;;;2.87;2.67;;;;;;;14.76;90.66;95578.31;5062475;28;20285;-56
2022/11/16 09:19:19;;;;;;;2.70;2.50;;;;;;;14.82;87.84;95572.19;5073916;28;20215;-57
2022/11/16 09:21:46;;;;;;;2.80;2.60;;;;;;;14.79;87.41;95574.44;5071336;28;20567;-57
2022/11/16 09:24:14;;;;;;;2.57;2.47;;;;;;;14.97;87.93;95584.56;5063156;28;20269;-57
2022/11/16 09:26:40;;;;;;;2.70;2.50;;;;;;;14.80;85.72;95581.41;5060536;28;20707;-57
2022/11/16 09:29:07;;;;;;;2.50;2.33;;;;;;;15.02;86.97;95574.19;5064212;28;20348;-56
2022/11/16 09:31:36;;;;;;;2.30;2.10;;;;;;;15.16;86.38;95581.22;5069057;28;20245;-57
2022/11/16 09:34:02;;;;;;;2.30;2.10;;;;;;;15.30;84.36;95574.94;5064471;28;20289;-57
2022/11/16 09:36:29;;;;;;;2.47;2.27;;;;;;;15.42;82.48;95576.00;5068044;28;20247;-58
2022/11/16 09:38:56;;;;;;;2.10;2.00;;;;;;;15.39;82.39;95571.06;5071415;28;20573;-57
2022/11/16 09:41:42;;;;;;;2.85;2.65;;;;;;;15.19;80.62;95578.16;5068930;28;20645;-56
2022/11/16 09:44:14;;;;;;;2.97;2.78;;;;;;;14.87;82.89;95580.44;5067201;28;20780;-57
2022/11/16 09:46:43;;;;;;;1.88;1.77;;;;;;;15.11;83.38;95573.81;5083158;28;20210;-57
2022/11/16 09:49:13;;;;;;;2.22;1.95;;;;;;;15.25;83.92;95580.00;5071681;28;20670;-57
2022/11/16 09:51:41;;;;;;;2.42;2.10;;;;;;;15.35;79.68;95583.13;5061977;28;20308;-57
2022/11/16 09:54:09;;;;;;;2.27;2.17;;;;;;;15.30;79.73;95583.72;5069689;28;20237;-58
2022/11/16 09:56:39;;;;;;;3.40;3.10;;;;;;;15.35;80.64;95580.47;5072690;28;20285;-57
2022/11/16 09:59:11;;;;;;;3.60;3.30;;;;;;;15.32;80.30;95586.19;5059325;28;20307;-57
2022/11/16 10:01:41;;;;;;;2.27;2.10;;;;;;;15.05;79.79;95579.09;5072138;28;20199;-57
2022/11/16 10:04:12;;;;;;;2.90;1.80;;;;;;;15.03;80.07;95583.78;5070017;28;20278;-56
2022/11/16 10:06:45;;;;;;;2.58;2.38;;;;;;;15.00;80.68;95578.84;5064223;28;20311;-57
2022/11/16 10:09:13;;;;;;;2.40;2.20;;;;;;;15.23;82.01;95576.75;5063647;28;20191;-56
2022/11/16 10:11:52;;;;;;;2.00;1.83;;;;;;;15.41;79.70;95577.00;5065490;28;20356;-57
2022/11/16 10:14:46;;;;;;;2.55;1.83;;;;;;;15.68;79.13;95573.47;5073637;28;20221;-56
2022/11/16 10:17:20;;;;;;;2.35;1.90;;;;;;;15.88;77.90;95565.50;5052601;28;20199;-57
2022/11/16 10:19:53;;;;;;;2.13;1.92;;;;;;;16.03;77.79;95573.34;5069274;28;20223;-55
2022/11/16 10:22:34;;;;;;;3.67;2.42;;;;;;;15.71;76.82;95562.41;5070633;28;20290;-57
2022/11/16 10:25:06;;;;;;;3.28;3.00;;;;;;;15.83;76.81;95563.47;5055733;28;20268;-57
2022/11/16 10:27:48;;;;;;;2.67;1.75;;;;;;;15.80;75.25;95552.38;5070464;28;20286;-58
2022/11/16 10:30:16;;;;;;;2.10;2.00;;;;;;;15.81;76.20;95559.34;5057480;28;20647;-57
2022/11/16 10:32:47;;;;;;;1.83;1.70;;;;;;;15.78;77.30;95549.91;5068979;28;20318;-57
2022/11/16 10:35:18;;;;;;;1.58;1.48;;;;;;;16.06;76.33;95551.59;5070622;28;20222;-57
2022/11/16 10:37:48;;;;;;;1.30;1.20;;;;;;;16.23;72.65;95547.50;5069995;28;20206;-57
2022/11/16 10:40:23;;;;;;;3.67;1.38;;;;;;;16.41;71.67;95540.53;5074363;28;20291;-58
2022/11/16 10:43:04;;;;;;;1.77;1.30;;;;;;;16.39;68.89;95539.94;5076181;28;20204;-57
2022/11/16 10:45:39;;;;;;;2.22;1.42;;;;;;;16.36;69.41;95534.19;5065535;28;20301;-57
2022/11/16 10:48:14;;;;;;;1.15;1.05;;;;;;;16.29;71.80;95530.69;5076639;28;20206;-58
2022/11/16 10:50:45;;;;;;;1.48;1.17;;;;;;;16.36;70.91;95531.53;5056937;28;20241;-56
2022/11/16 10:53:14;;;;;;;1.45;1.35;;;;;;;16.52;70.85;95523.06;5069911;28;20674;-56
2022/11/16 10:55:40;;;;;;;1.38;1.27;;;;;;;16.41;69.86;95526.38;5065821;28;20245;-57
2022/11/16 10:58:08;;;;;;;1.35;1.30;;;;;;;16.37;70.33;95525.13;5060997;28;20234;-57
2022/11/16 11:00:42;;;;;;;1.30;1.17;;;;;;;16.52;73.46;95531.09;5066107;28;20592;-57
2022/11/16 11:03:10;;;;;;;1.15;1.02;;;;;;;16.48;71.19;95529.84;5059577;28;20203;-58
2022/11/16 11:05:37;;;;;;;2.97;1.23;;;;;;;16.16;68.53;95526.16;5067438;28;20222;-57
2022/11/16 11:08:06;;;;;;;1.10;1.02;;;;;;;16.14;68.76;95522.06;5062828;28;20237;-56
2022/11/16 11:10:34;;;;;;;1.42;1.10;;;;;;;15.99;70.14;95524.09;5065131;28;20295;-56
2022/11/16 11:13:22;;;;;;;1.20;1.08;;;;;;;16.03;72.18;95520.00;5073040;28;20274;-57
2022/11/16 11:15:50;;;;;;;0.98;0.95;;;;;;;15.78;69.19;95525.09;5063055;28;20313;-56
2022/11/16 11:18:19;;;;;;;1.58;1.30;;;;;;;15.51;71.23;95521.56;5067895;28;20636;-57
2022/11/16 11:20:49;;;;;;;1.75;1.27;;;;;;;15.27;71.52;95520.19;5069524;28;20202;-56
2022/11/16 11:23:18;;;;;;;1.52;1.20;;;;;;;15.14;73.81;95524.66;5065314;28;20257;-57
2022/11/16 11:25:53;;;;;;;2.03;1.88;;;;;;;14.94;74.44;95519.25;5062629;28;20625;-57
2022/11/16 11:28:24;;;;;;;2.15;1.55;;;;;;;14.78;75.98;95512.41;5065228;28;20552;-56
2022/11/16 11:30:56;;;;;;;1.08;1.08;;;;;;;14.55;76.53;95509.19;5061166;28;20214;-57
2022/11/16 11:33:24;;;;;;;3.10;1.53;;;;;;;14.57;77.24;95504.50;5063852;28;20266;-58
2022/11/16 11:36:00;;;;;;;1.55;1.45;;;;;;;14.47;78.33;95503.19;5060998;28;20261;-57
2022/11/16 11:38:29;;;;;;;1.37;1.27;;;;;;;14.47;78.77;95505.84;5062389;28;20225;-57
2022/11/16 11:40:58;;;;;;;1.70;1.47;;;;;;;14.38;79.77;95505.19;5058784;28;20659;-57
2022/11/16 11:43:27;;;;;;;1.75;1.30;;;;;;;14.31;79.33;95501.63;5075254;28;20215;-57
2022/11/16 11:45:58;;;;;;;1.17;1.07;;;;;;;14.09;82.28;95497.38;5068311;28;20222;-57
2022/11/16 11:48:32;;;;;;;1.70;1.43;;;;;;;14.03;85.74;95503.47;5060401;28;20227;-57
2022/11/16 11:51:01;;;;;;;2.03;1.30;;;;;;;14.06;83.47;95493.28;5065818;28;20202;-55
2022/11/16 11:53:37;;;;;;;2.45;1.10;;;;;;;14.19;82.85;95479.25;5063243;28;20225;-57
2022/11/16 11:56:04;;;;;;;1.45;1.38;;;;;;;14.39;82.19;95480.22;5065325;28;20574;-57
2022/11/16 11:58:34;;;;;;;1.27;1.17;;;;;;;14.52;80.26;95477.66;5069113;28;20203;-57
2022/11/16 12:01:15;;;;;;;1.00;1.00;;;;;;;14.69;80.65;95473.66;5055567;28;20253;-57
2022/11/16 12:03:51;;;;;;;1.98;1.02;;;;;;;14.77;79.08;95476.16;5055182;28;20238;-56
2022/11/16 12:06:22;;;;;;;1.30;1.20;;;;;;;14.75;78.30;95478.19;5056236;28;20215;-57
2022/11/16 12:09:15;;;;;;;3.83;1.60;;;;;;;14.75;78.81;95478.19;5055458;28;20227;-57
2022/11/16 12:11:53;;;;;;;1.65;1.42;;;;;;;14.67;78.33;95475.69;5053712;28;20297;-57
2022/11/16 12:14:34;;;;;;;2.08;1.33;;;;;;;14.60;82.91;95480.16;5068213;28;20201;-57
2022/11/16 12:17:07;;;;;;;1.48;1.20;;;;;;;14.52;80.11;95480.34;5066109;28;20222;-58
2022/11/16 12:19:58;;;;;;;1.63;1.00;;;;;;;14.51;78.52;95476.00;5061419;28;20619;-58